Skip Navigation LinksHome page > Weather > Current weather Skip Navigation Links

Current Weather

Portela, Auckland, New Zealand

For information only: do not use for flight planning or navigation.
Latest weather
Observation time Monday, May 27, 2019 4:00 AM NZST
Local time Monday, May 27, 2019 4:18 AM NZST
Flight conditions Marginal Visual Meteorological Conditions
Winds
Wind direction South-Southeast (150°)
Wind speed 3 mph
Visibility 6.2 mi.
Sky condition
Ceiling 1,400 ft. broken clouds
Cloud layer broken clouds 1,400 ft.
Cloud layer broken clouds 1,700 ft.
Temperature 55°F
Dewpoint 54°F
Altimeter 30.06 in.Hg
Derived measurements
Relative humidity 94%
Density altitude -182 ft.
Remarks
Fully automated report.
METAR NZAA 261600Z AUTO 15003KT 9999 BKN017/// 13/12 Q1018 BECMG BKN014

Settings

Location code

InnerDrive.Weather 4.0.6770.0 Release CLR 4.0.30319.42000
Copyright ©2018 Inner Drive Technology. All rights reserved. Portions Copyright ©1986-2018 David Braverman.

Find weather

Site navigation


Skip Navigation Links

Place info

Page info

PayPal - The safer, easier way to pay online!

Return home.

Copyright ©2019 Inner Drive Technology. Purveyors of fine, hand-crafted computer software. Page printed 2019-05-26T16:18:16 UTC.